sensor_id;sensor_type;location;lat;lon;timestamp;temperature;humidity
12815;DHT22;6472;52.328;13.070;2023-01-06T00:01:33;4.00;99.90
12815;DHT22;6472;52.328;13.070;2023-01-06T00:04:02;3.80;99.90
12815;DHT22;6472;52.328;13.070;2023-01-06T00:06:30;3.80;99.90
12815;DHT22;6472;52.328;13.070;2023-01-06T00:09:01;3.80;99.90
12815;DHT22;6472;52.328;13.070;2023-01-06T00:11:31;3.90;99.90
12815;DHT22;6472;52.328;13.070;2023-01-06T00:13:59;3.80;99.90
12815;DHT22;6472;52.328;13.070;2023-01-06T00:16:28;3.90;99.90
12815;DHT22;6472;52.328;13.070;2023-01-06T00:18:57;3.80;99.90
12815;DHT22;6472;52.328;13.070;2023-01-06T00:21:26;3.80;99.90
12815;DHT22;6472;52.328;13.070;2023-01-06T00:23:55;3.90;99.90
12815;DHT22;6472;52.328;13.070;2023-01-06T00:26:24;3.80;99.90
12815;DHT22;6472;52.328;13.070;2023-01-06T00:28:53;3.80;99.90
12815;DHT22;6472;52.328;13.070;2023-01-06T00:31:22;3.90;99.90
12815;DHT22;6472;52.328;13.070;2023-01-06T00:33:50;3.90;99.90
12815;DHT22;6472;52.328;13.070;2023-01-06T00:36:19;3.90;99.90
12815;DHT22;6472;52.328;13.070;2023-01-06T00:38:48;3.90;99.90
12815;DHT22;6472;52.328;13.070;2023-01-06T00:41:17;4.00;99.90
12815;DHT22;6472;52.328;13.070;2023-01-06T00:44:04;4.00;99.90
12815;DHT22;6472;52.328;13.070;2023-01-06T00:46:32;4.10;99.90
12815;DHT22;6472;52.328;13.070;2023-01-06T00:49:02;4.10;99.90
12815;DHT22;6472;52.328;13.070;2023-01-06T00:51:33;4.10;99.90
12815;DHT22;6472;52.328;13.070;2023-01-06T00:54:02;4.10;99.90
12815;DHT22;6472;52.328;13.070;2023-01-06T00:56:30;4.20;99.90
12815;DHT22;6472;52.328;13.070;2023-01-06T00:59:01;4.20;99.90
12815;DHT22;6472;52.328;13.070;2023-01-06T01:01:30;4.20;99.90
12815;DHT22;6472;52.328;13.070;2023-01-06T01:03:59;4.30;99.90
12815;DHT22;6472;52.328;13.070;2023-01-06T01:06:27;4.40;99.90
12815;DHT22;6472;52.328;13.070;2023-01-06T01:08:56;4.40;99.90
12815;DHT22;6472;52.328;13.070;2023-01-06T01:11:25;4.40;99.90
12815;DHT22;6472;52.328;13.070;2023-01-06T01:14:12;4.40;99.90
12815;DHT22;6472;52.328;13.070;2023-01-06T01:16:42;4.40;99.90
12815;DHT22;6472;52.328;13.070;2023-01-06T01:19:11;4.40;99.90
12815;DHT22;6472;52.328;13.070;2023-01-06T01:21:39;4.50;99.90
12815;DHT22;6472;52.328;13.070;2023-01-06T01:24:08;4.50;99.90
12815;DHT22;6472;52.328;13.070;2023-01-06T01:26:36;4.50;99.90
12815;DHT22;6472;52.328;13.070;2023-01-06T01:29:04;4.50;99.90
12815;DHT22;6472;52.328;13.070;2023-01-06T01:31:33;4.50;99.90
12815;DHT22;6472;52.328;13.070;2023-01-06T01:34:02;4.50;99.90
12815;DHT22;6472;52.328;13.070;2023-01-06T01:36:30;4.50;99.90
12815;DHT22;6472;52.328;13.070;2023-01-06T01:38:59;4.50;99.90
12815;DHT22;6472;52.328;13.070;2023-01-06T01:41:28;4.60;99.90
12815;DHT22;6472;52.328;13.070;2023-01-06T01:43:58;4.50;99.90
12815;DHT22;6472;52.328;13.070;2023-01-06T01:46:29;4.60;99.90
12815;DHT22;6472;52.328;13.070;2023-01-06T01:49:02;4.50;99.90
12815;DHT22;6472;52.328;13.070;2023-01-06T01:51:35;4.50;99.90
12815;DHT22;6472;52.328;13.070;2023-01-06T01:54:10;4.50;99.90
12815;DHT22;6472;52.328;13.070;2023-01-06T01:56:48;4.40;99.90
12815;DHT22;6472;52.328;13.070;2023-01-06T01:59:20;4.30;99.90
12815;DHT22;6472;52.328;13.070;2023-01-06T02:01:50;4.30;99.90
12815;DHT22;6472;52.328;13.070;2023-01-06T02:04:22;4.20;99.90
12815;DHT22;6472;52.328;13.070;2023-01-06T02:06:52;4.30;99.90
12815;DHT22;6472;52.328;13.070;2023-01-06T02:09:24;4.20;99.90
12815;DHT22;6472;52.328;13.070;2023-01-06T02:11:54;4.20;99.90
12815;DHT22;6472;52.328;13.070;2023-01-06T02:14:24;4.20;99.90
12815;DHT22;6472;52.328;13.070;2023-01-06T02:17:03;4.20;99.90
12815;DHT22;6472;52.328;13.070;2023-01-06T02:19:59;4.10;99.90
12815;DHT22;6472;52.328;13.070;2023-01-06T02:22:47;4.20;99.90
12815;DHT22;6472;52.328;13.070;2023-01-06T02:25:47;4.30;99.90
12815;DHT22;6472;52.328;13.070;2023-01-06T02:28:39;4.40;99.90
12815;DHT22;6472;52.328;13.070;2023-01-06T02:31:44;4.30;99.90
12815;DHT22;6472;52.328;13.070;2023-01-06T02:34:23;4.30;99.90
12815;DHT22;6472;52.328;13.070;2023-01-06T02:37:01;4.20;99.90
12815;DHT22;6472;52.328;13.070;2023-01-06T02:39:39;4.20;99.90
12815;DHT22;6472;52.328;13.070;2023-01-06T02:42:16;4.30;99.90
12815;DHT22;6472;52.328;13.070;2023-01-06T02:44:50;4.20;99.90
12815;DHT22;6472;52.328;13.070;2023-01-06T02:47:30;4.20;99.90
12815;DHT22;6472;52.328;13.070;2023-01-06T02:50:09;4.30;99.90
12815;DHT22;6472;52.328;13.070;2023-01-06T02:52:42;4.30;99.90
12815;DHT22;6472;52.328;13.070;2023-01-06T02:55:16;4.30;99.90
12815;DHT22;6472;52.328;13.070;2023-01-06T02:57:51;4.30;99.90
12815;DHT22;6472;52.328;13.070;2023-01-06T03:00:23;4.30;99.90
12815;DHT22;6472;52.328;13.070;2023-01-06T03:02:56;4.30;99.90
12815;DHT22;6472;52.328;13.070;2023-01-06T03:05:27;4.30;99.90
12815;DHT22;6472;52.328;13.070;2023-01-06T03:07:56;4.40;99.90
12815;DHT22;6472;52.328;13.070;2023-01-06T03:10:26;4.40;99.90
12815;DHT22;6472;52.328;13.070;2023-01-06T03:13:00;4.40;99.90
12815;DHT22;6472;52.328;13.070;2023-01-06T03:15:29;4.50;99.90
12815;DHT22;6472;52.328;13.070;2023-01-06T03:17:59;4.50;99.90
12815;DHT22;6472;52.328;13.070;2023-01-06T03:20:27;4.60;99.90
12815;DHT22;6472;52.328;13.070;2023-01-06T03:22:55;4.60;99.90
12815;DHT22;6472;52.328;13.070;2023-01-06T03:25:23;4.60;99.90
12815;DHT22;6472;52.328;13.070;2023-01-06T03:27:52;4.60;99.90
12815;DHT22;6472;52.328;13.070;2023-01-06T03:30:20;4.60;99.90
12815;DHT22;6472;52.328;13.070;2023-01-06T03:32:55;4.60;99.90
12815;DHT22;6472;52.328;13.070;2023-01-06T03:35:46;4.60;99.90
12815;DHT22;6472;52.328;13.070;2023-01-06T03:38:29;4.60;99.90
12815;DHT22;6472;52.328;13.070;2023-01-06T03:41:04;4.60;99.90
12815;DHT22;6472;52.328;13.070;2023-01-06T03:43:43;4.60;99.90
12815;DHT22;6472;52.328;13.070;2023-01-06T03:46:19;4.70;99.90
12815;DHT22;6472;52.328;13.070;2023-01-06T03:48:56;4.80;99.90
12815;DHT22;6472;52.328;13.070;2023-01-06T03:51:38;4.70;99.90
12815;DHT22;6472;52.328;13.070;2023-01-06T03:54:12;4.70;99.90
12815;DHT22;6472;52.328;13.070;2023-01-06T03:56:48;4.80;99.90
12815;DHT22;6472;52.328;13.070;2023-01-06T03:59:20;4.80;99.90
12815;DHT22;6472;52.328;13.070;2023-01-06T04:01:49;4.70;99.90
12815;DHT22;6472;52.328;13.070;2023-01-06T04:04:18;4.70;99.90
12815;DHT22;6472;52.328;13.070;2023-01-06T04:06:48;4.70;99.90
12815;DHT22;6472;52.328;13.070;2023-01-06T04:09:16;4.70;99.90
12815;DHT22;6472;52.328;13.070;2023-01-06T04:11:44;4.80;99.90
12815;DHT22;6472;52.328;13.070;2023-01-06T04:14:29;4.80;99.90
12815;DHT22;6472;52.328;13.070;2023-01-06T04:16:58;4.80;99.90
12815;DHT22;6472;52.328;13.070;2023-01-06T04:19:26;4.80;99.90
12815;DHT22;6472;52.328;13.070;2023-01-06T04:22:00;4.70;99.90
12815;DHT22;6472;52.328;13.070;2023-01-06T04:24:29;4.80;99.90
12815;DHT22;6472;52.328;13.070;2023-01-06T04:26:57;4.80;99.90
12815;DHT22;6472;52.328;13.070;2023-01-06T04:29:25;4.90;99.90
12815;DHT22;6472;52.328;13.070;2023-01-06T04:31:54;5.00;99.90
12815;DHT22;6472;52.328;13.070;2023-01-06T04:34:23;5.00;99.90
12815;DHT22;6472;52.328;13.070;2023-01-06T04:36:51;4.90;99.90
12815;DHT22;6472;52.328;13.070;2023-01-06T04:39:20;5.00;99.90
12815;DHT22;6472;52.328;13.070;2023-01-06T04:41:48;5.00;99.90
12815;DHT22;6472;52.328;13.070;2023-01-06T04:44:17;5.00;99.90
12815;DHT22;6472;52.328;13.070;2023-01-06T04:46:45;5.00;99.90
12815;DHT22;6472;52.328;13.070;2023-01-06T04:49:13;5.00;99.90
12815;DHT22;6472;52.328;13.070;2023-01-06T04:51:41;5.20;99.90
12815;DHT22;6472;52.328;13.070;2023-01-06T04:54:09;5.20;99.90
12815;DHT22;6472;52.328;13.070;2023-01-06T04:56:39;5.10;99.90
12815;DHT22;6472;52.328;13.070;2023-01-06T04:59:07;5.10;99.90
12815;DHT22;6472;52.328;13.070;2023-01-06T05:01:36;5.10;99.90
12815;DHT22;6472;52.328;13.070;2023-01-06T05:04:04;5.10;99.90
12815;DHT22;6472;52.328;13.070;2023-01-06T05:06:33;5.20;99.90
12815;DHT22;6472;52.328;13.070;2023-01-06T05:09:01;5.30;99.90
12815;DHT22;6472;52.328;13.070;2023-01-06T05:11:29;5.30;99.90
12815;DHT22;6472;52.328;13.070;2023-01-06T05:13:59;5.20;99.90
12815;DHT22;6472;52.328;13.070;2023-01-06T05:16:33;5.20;99.90
12815;DHT22;6472;52.328;13.070;2023-01-06T05:19:01;5.30;99.90
12815;DHT22;6472;52.328;13.070;2023-01-06T05:21:31;5.20;99.90
12815;DHT22;6472;52.328;13.070;2023-01-06T05:24:01;5.20;99.90
12815;DHT22;6472;52.328;13.070;2023-01-06T05:26:29;5.30;99.90
12815;DHT22;6472;52.328;13.070;2023-01-06T05:29:07;5.20;99.90
12815;DHT22;6472;52.328;13.070;2023-01-06T05:31:37;5.30;99.90
12815;DHT22;6472;52.328;13.070;2023-01-06T05:34:09;5.20;99.90
12815;DHT22;6472;52.328;13.070;2023-01-06T05:36:59;5.30;99.90
12815;DHT22;6472;52.328;13.070;2023-01-06T05:39:45;5.40;99.90
12815;DHT22;6472;52.328;13.070;2023-01-06T05:42:18;5.30;99.90
12815;DHT22;6472;52.328;13.070;2023-01-06T05:44:58;5.40;99.90
12815;DHT22;6472;52.328;13.070;2023-01-06T05:47:28;5.40;99.90
12815;DHT22;6472;52.328;13.070;2023-01-06T05:49:58;5.30;99.90
12815;DHT22;6472;52.328;13.070;2023-01-06T05:52:37;5.30;99.90
12815;DHT22;6472;52.328;13.070;2023-01-06T05:55:07;5.30;99.90
12815;DHT22;6472;52.328;13.070;2023-01-06T05:57:41;5.40;99.90
12815;DHT22;6472;52.328;13.070;2023-01-06T06:00:19;5.40;99.90
12815;DHT22;6472;52.328;13.070;2023-01-06T06:02:54;5.40;99.90
12815;DHT22;6472;52.328;13.070;2023-01-06T06:05:34;5.40;99.90
12815;DHT22;6472;52.328;13.070;2023-01-06T06:08:08;5.30;99.90
12815;DHT22;6472;52.328;13.070;2023-01-06T06:10:43;5.30;99.90
12815;DHT22;6472;52.328;13.070;2023-01-06T06:13:44;5.40;99.90
12815;DHT22;6472;52.328;13.070;2023-01-06T06:16:16;5.40;99.90
12815;DHT22;6472;52.328;13.070;2023-01-06T06:18:48;5.40;99.90
12815;DHT22;6472;52.328;13.070;2023-01-06T06:21:18;5.50;99.90
12815;DHT22;6472;52.328;13.070;2023-01-06T06:23:49;5.50;99.90
12815;DHT22;6472;52.328;13.070;2023-01-06T06:26:18;5.50;99.90
12815;DHT22;6472;52.328;13.070;2023-01-06T06:28:47;5.40;99.90
12815;DHT22;6472;52.328;13.070;2023-01-06T06:31:18;5.50;99.90
12815;DHT22;6472;52.328;13.070;2023-01-06T06:33:49;5.50;99.90
12815;DHT22;6472;52.328;13.070;2023-01-06T06:36:18;5.40;99.90
12815;DHT22;6472;52.328;13.070;2023-01-06T06:38:48;5.50;99.90
12815;DHT22;6472;52.328;13.070;2023-01-06T06:41:16;5.50;99.90
12815;DHT22;6472;52.328;13.070;2023-01-06T06:43:45;5.50;99.90
12815;DHT22;6472;52.328;13.070;2023-01-06T06:46:18;5.50;99.90
12815;DHT22;6472;52.328;13.070;2023-01-06T06:48:46;5.50;99.90
12815;DHT22;6472;52.328;13.070;2023-01-06T06:51:17;5.60;99.90
12815;DHT22;6472;52.328;13.070;2023-01-06T06:53:45;5.60;99.90
12815;DHT22;6472;52.328;13.070;2023-01-06T06:56:14;5.50;99.90
12815;DHT22;6472;52.328;13.070;2023-01-06T06:58:43;5.60;99.90
12815;DHT22;6472;52.328;13.070;2023-01-06T07:01:13;5.50;99.90
12815;DHT22;6472;52.328;13.070;2023-01-06T07:03:43;5.50;99.90
12815;DHT22;6472;52.328;13.070;2023-01-06T07:06:13;5.50;99.90
12815;DHT22;6472;52.328;13.070;2023-01-06T07:08:42;5.60;99.90
12815;DHT22;6472;52.328;13.070;2023-01-06T07:11:11;5.60;99.90
12815;DHT22;6472;52.328;13.070;2023-01-06T07:13:39;5.60;99.90
12815;DHT22;6472;52.328;13.070;2023-01-06T07:16:08;5.70;99.90
12815;DHT22;6472;52.328;13.070;2023-01-06T07:18:36;5.70;99.90
12815;DHT22;6472;52.328;13.070;2023-01-06T07:21:06;5.80;99.90
12815;DHT22;6472;52.328;13.070;2023-01-06T07:23:34;5.80;99.90
12815;DHT22;6472;52.328;13.070;2023-01-06T07:26:03;5.90;99.90
12815;DHT22;6472;52.328;13.070;2023-01-06T07:28:31;5.90;99.90
12815;DHT22;6472;52.328;13.070;2023-01-06T07:31:00;5.90;99.90
12815;DHT22;6472;52.328;13.070;2023-01-06T07:33:28;5.90;99.90
12815;DHT22;6472;52.328;13.070;2023-01-06T07:35:56;5.90;99.90
12815;DHT22;6472;52.328;13.070;2023-01-06T07:38:26;5.90;99.90
12815;DHT22;6472;52.328;13.070;2023-01-06T07:40:58;6.00;99.90
12815;DHT22;6472;52.328;13.070;2023-01-06T07:43:27;6.10;99.90
12815;DHT22;6472;52.328;13.070;2023-01-06T07:45:55;6.10;99.90
12815;DHT22;6472;52.328;13.070;2023-01-06T07:48:23;6.10;99.90
12815;DHT22;6472;52.328;13.070;2023-01-06T07:50:51;6.10;99.90
12815;DHT22;6472;52.328;13.070;2023-01-06T07:53:19;6.00;99.90
12815;DHT22;6472;52.328;13.070;2023-01-06T07:55:53;6.00;99.90
12815;DHT22;6472;52.328;13.070;2023-01-06T07:58:21;6.00;99.90
12815;DHT22;6472;52.328;13.070;2023-01-06T08:00:50;6.10;99.90
12815;DHT22;6472;52.328;13.070;2023-01-06T08:03:22;6.10;99.90
12815;DHT22;6472;52.328;13.070;2023-01-06T08:05:50;6.20;99.90
12815;DHT22;6472;52.328;13.070;2023-01-06T08:08:18;6.40;99.90
12815;DHT22;6472;52.328;13.070;2023-01-06T08:10:46;6.20;99.90
12815;DHT22;6472;52.328;13.070;2023-01-06T08:13:16;6.30;99.90
12815;DHT22;6472;52.328;13.070;2023-01-06T08:15:46;6.30;99.90
12815;DHT22;6472;52.328;13.070;2023-01-06T08:18:17;6.30;99.90
12815;DHT22;6472;52.328;13.070;2023-01-06T08:20:45;6.30;99.90
12815;DHT22;6472;52.328;13.070;2023-01-06T08:23:13;6.40;99.90
12815;DHT22;6472;52.328;13.070;2023-01-06T08:25:42;6.40;99.90
12815;DHT22;6472;52.328;13.070;2023-01-06T08:28:10;6.50;99.90
12815;DHT22;6472;52.328;13.070;2023-01-06T08:30:44;6.60;99.90
12815;DHT22;6472;52.328;13.070;2023-01-06T08:33:14;6.60;99.90
12815;DHT22;6472;52.328;13.070;2023-01-06T08:35:42;6.60;99.90
12815;DHT22;6472;52.328;13.070;2023-01-06T08:38:13;6.60;99.90
12815;DHT22;6472;52.328;13.070;2023-01-06T08:40:41;6.70;99.90
12815;DHT22;6472;52.328;13.070;2023-01-06T08:43:09;6.80;99.90
12815;DHT22;6472;52.328;13.070;2023-01-06T08:45:40;6.80;99.90
12815;DHT22;6472;52.328;13.070;2023-01-06T08:48:08;6.80;99.90
12815;DHT22;6472;52.328;13.070;2023-01-06T08:50:37;6.80;99.90
12815;DHT22;6472;52.328;13.070;2023-01-06T08:53:05;6.80;99.90
12815;DHT22;6472;52.328;13.070;2023-01-06T08:55:37;6.80;99.90
12815;DHT22;6472;52.328;13.070;2023-01-06T08:58:05;6.80;99.90
12815;DHT22;6472;52.328;13.070;2023-01-06T09:00:34;6.80;99.90
12815;DHT22;6472;52.328;13.070;2023-01-06T09:03:03;6.80;99.90
12815;DHT22;6472;52.328;13.070;2023-01-06T09:05:31;6.90;99.90
12815;DHT22;6472;52.328;13.070;2023-01-06T09:07:59;6.90;99.90
12815;DHT22;6472;52.328;13.070;2023-01-06T09:10:27;6.90;99.90
12815;DHT22;6472;52.328;13.070;2023-01-06T09:12:59;6.90;99.90
12815;DHT22;6472;52.328;13.070;2023-01-06T09:15:38;7.00;99.90
12815;DHT22;6472;52.328;13.070;2023-01-06T09:18:08;6.90;99.90
12815;DHT22;6472;52.328;13.070;2023-01-06T09:20:36;7.00;99.90
12815;DHT22;6472;52.328;13.070;2023-01-06T09:23:04;7.00;99.90
12815;DHT22;6472;52.328;13.070;2023-01-06T09:25:32;7.00;99.90
12815;DHT22;6472;52.328;13.070;2023-01-06T09:28:00;7.00;99.90
12815;DHT22;6472;52.328;13.070;2023-01-06T09:30:28;7.10;99.90
12815;DHT22;6472;52.328;13.070;2023-01-06T09:32:57;7.20;99.90
12815;DHT22;6472;52.328;13.070;2023-01-06T09:35:26;7.30;99.90
12815;DHT22;6472;52.328;13.070;2023-01-06T09:37:54;7.30;99.90
12815;DHT22;6472;52.328;13.070;2023-01-06T09:40:24;7.40;99.90
12815;DHT22;6472;52.328;13.070;2023-01-06T09:43:04;7.40;99.90
12815;DHT22;6472;52.328;13.070;2023-01-06T09:45:40;7.50;99.90
12815;DHT22;6472;52.328;13.070;2023-01-06T09:48:14;7.50;99.90
12815;DHT22;6472;52.328;13.070;2023-01-06T09:50:46;7.50;99.90
12815;DHT22;6472;52.328;13.070;2023-01-06T09:53:18;7.50;99.90
12815;DHT22;6472;52.328;13.070;2023-01-06T09:55:50;7.60;99.90
12815;DHT22;6472;52.328;13.070;2023-01-06T09:58:26;7.60;99.90
12815;DHT22;6472;52.328;13.070;2023-01-06T10:00:55;7.60;99.90
12815;DHT22;6472;52.328;13.070;2023-01-06T10:03:48;7.70;99.90
12815;DHT22;6472;52.328;13.070;2023-01-06T10:06:27;7.70;99.90
12815;DHT22;6472;52.328;13.070;2023-01-06T10:09:06;7.80;99.90
12815;DHT22;6472;52.328;13.070;2023-01-06T10:11:53;7.90;99.90
12815;DHT22;6472;52.328;13.070;2023-01-06T10:14:28;7.90;99.90
12815;DHT22;6472;52.328;13.070;2023-01-06T10:17:13;7.90;99.90
12815;DHT22;6472;52.328;13.070;2023-01-06T10:19:55;8.00;99.90
12815;DHT22;6472;52.328;13.070;2023-01-06T10:22:34;8.10;99.90
12815;DHT22;6472;52.328;13.070;2023-01-06T10:25:13;8.20;99.90
12815;DHT22;6472;52.328;13.070;2023-01-06T10:27:48;8.30;99.90
12815;DHT22;6472;52.328;13.070;2023-01-06T10:30:19;8.40;99.90
12815;DHT22;6472;52.328;13.070;2023-01-06T10:32:56;8.50;99.90
12815;DHT22;6472;52.328;13.070;2023-01-06T10:35:25;8.50;99.90
12815;DHT22;6472;52.328;13.070;2023-01-06T10:37:57;8.70;99.90
12815;DHT22;6472;52.328;13.070;2023-01-06T10:40:28;8.70;99.90
12815;DHT22;6472;52.328;13.070;2023-01-06T10:42:58;8.80;99.90
12815;DHT22;6472;52.328;13.070;2023-01-06T10:45:33;8.90;99.90
12815;DHT22;6472;52.328;13.070;2023-01-06T10:48:03;9.00;99.90
12815;DHT22;6472;52.328;13.070;2023-01-06T10:50:33;9.10;99.90
12815;DHT22;6472;52.328;13.070;2023-01-06T10:53:04;9.10;99.90
12815;DHT22;6472;52.328;13.070;2023-01-06T10:55:39;9.10;99.90
12815;DHT22;6472;52.328;13.070;2023-01-06T10:58:20;9.10;99.90
12815;DHT22;6472;52.328;13.070;2023-01-06T11:00:58;9.00;99.90
12815;DHT22;6472;52.328;13.070;2023-01-06T11:03:27;9.00;99.90
12815;DHT22;6472;52.328;13.070;2023-01-06T11:06:04;9.00;99.90
12815;DHT22;6472;52.328;13.070;2023-01-06T11:08:35;8.90;99.90
12815;DHT22;6472;52.328;13.070;2023-01-06T11:11:10;8.90;99.90
12815;DHT22;6472;52.328;13.070;2023-01-06T11:13:55;8.80;99.90
12815;DHT22;6472;52.328;13.070;2023-01-06T11:16:27;8.80;99.90
12815;DHT22;6472;52.328;13.070;2023-01-06T11:18:57;8.70;99.90
12815;DHT22;6472;52.328;13.070;2023-01-06T11:21:37;8.70;99.90
12815;DHT22;6472;52.328;13.070;2023-01-06T11:24:16;8.70;99.90
12815;DHT22;6472;52.328;13.070;2023-01-06T11:26:50;8.70;99.90
12815;DHT22;6472;52.328;13.070;2023-01-06T11:29:25;8.70;99.90
12815;DHT22;6472;52.328;13.070;2023-01-06T11:31:54;8.70;99.90
12815;DHT22;6472;52.328;13.070;2023-01-06T11:34:24;8.70;99.90
12815;DHT22;6472;52.328;13.070;2023-01-06T11:36:55;8.80;99.90
12815;DHT22;6472;52.328;13.070;2023-01-06T11:39:28;8.80;99.90
12815;DHT22;6472;52.328;13.070;2023-01-06T11:42:02;8.80;99.90
12815;DHT22;6472;52.328;13.070;2023-01-06T11:44:34;8.80;99.90
12815;DHT22;6472;52.328;13.070;2023-01-06T11:47:05;8.80;99.90
12815;DHT22;6472;52.328;13.070;2023-01-06T11:49:36;8.90;99.90
12815;DHT22;6472;52.328;13.070;2023-01-06T11:52:19;8.90;99.90
12815;DHT22;6472;52.328;13.070;2023-01-06T11:54:58;8.90;99.90
12815;DHT22;6472;52.328;13.070;2023-01-06T11:57:34;8.90;99.90
12815;DHT22;6472;52.328;13.070;2023-01-06T12:03:07;9.00;99.90
12815;DHT22;6472;52.328;13.070;2023-01-06T12:05:45;9.10;99.90
12815;DHT22;6472;52.328;13.070;2023-01-06T12:08:17;9.10;99.90
12815;DHT22;6472;52.328;13.070;2023-01-06T12:10:52;9.20;99.90
12815;DHT22;6472;52.328;13.070;2023-01-06T12:13:22;9.20;99.90
12815;DHT22;6472;52.328;13.070;2023-01-06T12:15:57;9.20;99.90
12815;DHT22;6472;52.328;13.070;2023-01-06T12:18:30;9.30;99.90
12815;DHT22;6472;52.328;13.070;2023-01-06T12:21:00;9.30;99.90
12815;DHT22;6472;52.328;13.070;2023-01-06T12:23:31;9.40;99.90
12815;DHT22;6472;52.328;13.070;2023-01-06T12:26:04;9.60;99.90
12815;DHT22;6472;52.328;13.070;2023-01-06T12:28:38;9.60;99.90
12815;DHT22;6472;52.328;13.070;2023-01-06T12:31:09;9.60;99.90
12815;DHT22;6472;52.328;13.070;2023-01-06T12:33:46;9.60;99.90
12815;DHT22;6472;52.328;13.070;2023-01-06T12:36:25;9.70;99.90
12815;DHT22;6472;52.328;13.070;2023-01-06T12:38:55;9.70;99.90
12815;DHT22;6472;52.328;13.070;2023-01-06T12:41:29;9.70;99.90
12815;DHT22;6472;52.328;13.070;2023-01-06T12:44:09;9.70;99.90
12815;DHT22;6472;52.328;13.070;2023-01-06T12:46:43;9.70;99.90
12815;DHT22;6472;52.328;13.070;2023-01-06T12:49:19;9.70;99.90
12815;DHT22;6472;52.328;13.070;2023-01-06T12:51:51;9.70;99.90
12815;DHT22;6472;52.328;13.070;2023-01-06T12:54:24;9.80;99.90
12815;DHT22;6472;52.328;13.070;2023-01-06T12:57:07;9.80;99.90
12815;DHT22;6472;52.328;13.070;2023-01-06T12:59:49;9.80;99.90
12815;DHT22;6472;52.328;13.070;2023-01-06T13:02:41;9.80;99.90
12815;DHT22;6472;52.328;13.070;2023-01-06T13:05:30;9.80;99.90
12815;DHT22;6472;52.328;13.070;2023-01-06T13:08:20;9.80;99.90
12815;DHT22;6472;52.328;13.070;2023-01-06T13:10:55;9.80;99.90
12815;DHT22;6472;52.328;13.070;2023-01-06T13:13:42;9.80;99.90
12815;DHT22;6472;52.328;13.070;2023-01-06T13:16:17;9.90;99.90
12815;DHT22;6472;52.328;13.070;2023-01-06T13:18:59;9.90;99.90
12815;DHT22;6472;52.328;13.070;2023-01-06T13:21:30;10.00;99.90
12815;DHT22;6472;52.328;13.070;2023-01-06T13:24:25;10.00;99.90
12815;DHT22;6472;52.328;13.070;2023-01-06T13:27:10;10.10;99.90
12815;DHT22;6472;52.328;13.070;2023-01-06T13:29:56;10.10;99.90
12815;DHT22;6472;52.328;13.070;2023-01-06T13:32:37;10.20;99.90
12815;DHT22;6472;52.328;13.070;2023-01-06T13:38:08;10.20;99.90
12815;DHT22;6472;52.328;13.070;2023-01-06T13:40:40;10.20;99.90
12815;DHT22;6472;52.328;13.070;2023-01-06T13:43:16;10.20;99.90
12815;DHT22;6472;52.328;13.070;2023-01-06T13:45:49;10.20;99.90
12815;DHT22;6472;52.328;13.070;2023-01-06T13:48:22;10.10;99.90
12815;DHT22;6472;52.328;13.070;2023-01-06T13:50:51;10.10;99.90
12815;DHT22;6472;52.328;13.070;2023-01-06T13:53:21;10.20;99.90
12815;DHT22;6472;52.328;13.070;2023-01-06T13:59:21;10.10;99.90
12815;DHT22;6472;52.328;13.070;2023-01-06T14:01:51;10.20;99.90
12815;DHT22;6472;52.328;13.070;2023-01-06T14:04:46;10.10;99.90
12815;DHT22;6472;52.328;13.070;2023-01-06T14:07:32;10.10;99.90
12815;DHT22;6472;52.328;13.070;2023-01-06T14:10:02;10.10;99.90
12815;DHT22;6472;52.328;13.070;2023-01-06T14:12:32;10.10;99.90
12815;DHT22;6472;52.328;13.070;2023-01-06T14:15:03;10.10;99.90
12815;DHT22;6472;52.328;13.070;2023-01-06T14:17:40;10.00;99.90
12815;DHT22;6472;52.328;13.070;2023-01-06T14:20:22;9.90;99.90
12815;DHT22;6472;52.328;13.070;2023-01-06T14:23:02;10.00;99.90
12815;DHT22;6472;52.328;13.070;2023-01-06T14:25:34;9.90;99.90
12815;DHT22;6472;52.328;13.070;2023-01-06T14:28:24;9.90;99.90
12815;DHT22;6472;52.328;13.070;2023-01-06T14:33:58;9.90;99.90
12815;DHT22;6472;52.328;13.070;2023-01-06T14:36:28;9.80;99.90
12815;DHT22;6472;52.328;13.070;2023-01-06T14:39:02;9.80;99.90
12815;DHT22;6472;52.328;13.070;2023-01-06T14:41:35;9.70;99.90
12815;DHT22;6472;52.328;13.070;2023-01-06T14:44:12;9.70;99.90
12815;DHT22;6472;52.328;13.070;2023-01-06T14:46:47;9.60;99.90
12815;DHT22;6472;52.328;13.070;2023-01-06T14:49:22;9.60;99.90
12815;DHT22;6472;52.328;13.070;2023-01-06T14:51:53;9.60;99.90
12815;DHT22;6472;52.328;13.070;2023-01-06T14:54:28;9.70;99.90
12815;DHT22;6472;52.328;13.070;2023-01-06T14:56:59;9.60;99.90
12815;DHT22;6472;52.328;13.070;2023-01-06T14:59:32;9.50;99.90
12815;DHT22;6472;52.328;13.070;2023-01-06T15:02:15;9.50;99.90
12815;DHT22;6472;52.328;13.070;2023-01-06T15:04:54;9.50;99.90
12815;DHT22;6472;52.328;13.070;2023-01-06T15:07:22;9.50;99.90
12815;DHT22;6472;52.328;13.070;2023-01-06T15:09:51;9.40;99.90
12815;DHT22;6472;52.328;13.070;2023-01-06T15:12:22;9.30;99.90
12815;DHT22;6472;52.328;13.070;2023-01-06T15:14:50;9.30;99.90
12815;DHT22;6472;52.328;13.070;2023-01-06T15:17:19;9.30;99.90
12815;DHT22;6472;52.328;13.070;2023-01-06T15:19:50;9.20;99.90
12815;DHT22;6472;52.328;13.070;2023-01-06T15:22:24;9.30;99.90
12815;DHT22;6472;52.328;13.070;2023-01-06T15:24:53;9.10;99.90
12815;DHT22;6472;52.328;13.070;2023-01-06T15:27:21;9.10;99.90
12815;DHT22;6472;52.328;13.070;2023-01-06T15:29:50;9.10;99.90
12815;DHT22;6472;52.328;13.070;2023-01-06T15:32:20;9.20;99.90
12815;DHT22;6472;52.328;13.070;2023-01-06T15:34:50;9.20;99.90
12815;DHT22;6472;52.328;13.070;2023-01-06T15:37:20;9.20;99.90
12815;DHT22;6472;52.328;13.070;2023-01-06T15:39:50;9.20;99.90
12815;DHT22;6472;52.328;13.070;2023-01-06T15:42:20;9.10;99.90
12815;DHT22;6472;52.328;13.070;2023-01-06T15:44:54;9.00;99.90
12815;DHT22;6472;52.328;13.070;2023-01-06T15:47:28;9.00;99.90
12815;DHT22;6472;52.328;13.070;2023-01-06T15:50:00;9.00;99.90
12815;DHT22;6472;52.328;13.070;2023-01-06T15:52:30;9.00;99.90
12815;DHT22;6472;52.328;13.070;2023-01-06T15:55:01;8.90;99.90
12815;DHT22;6472;52.328;13.070;2023-01-06T15:57:33;8.90;99.90
12815;DHT22;6472;52.328;13.070;2023-01-06T16:00:06;8.80;99.90
12815;DHT22;6472;52.328;13.070;2023-01-06T16:02:35;8.70;99.90
12815;DHT22;6472;52.328;13.070;2023-01-06T16:05:05;8.80;99.90
12815;DHT22;6472;52.328;13.070;2023-01-06T16:07:36;8.80;99.90
12815;DHT22;6472;52.328;13.070;2023-01-06T16:10:28;8.80;99.90
12815;DHT22;6472;52.328;13.070;2023-01-06T16:13:20;8.80;99.90
12815;DHT22;6472;52.328;13.070;2023-01-06T16:15:53;8.80;99.90
12815;DHT22;6472;52.328;13.070;2023-01-06T16:18:27;8.80;99.90
12815;DHT22;6472;52.328;13.070;2023-01-06T16:20:58;8.90;99.90
12815;DHT22;6472;52.328;13.070;2023-01-06T16:23:31;8.80;99.90
12815;DHT22;6472;52.328;13.070;2023-01-06T16:26:09;8.70;99.90
12815;DHT22;6472;52.328;13.070;2023-01-06T16:28:44;8.60;99.90
12815;DHT22;6472;52.328;13.070;2023-01-06T16:31:14;8.50;99.90
12815;DHT22;6472;52.328;13.070;2023-01-06T16:33:54;8.40;99.90